sensor_id;sensor_type;location;lat;lon;timestamp;P1;durP1;ratioP1;P2;durP2;ratioP2
67867;SDS011;54672;46.096;14.470;2022-08-03T00:01:45;4.57;;;3.40;;
67867;SDS011;54672;46.096;14.470;2022-08-03T00:04:10;5.38;;;3.20;;
67867;SDS011;54672;46.096;14.470;2022-08-03T00:06:36;4.47;;;3.30;;
67867;SDS011;54672;46.096;14.470;2022-08-03T00:09:02;4.22;;;3.40;;
67867;SDS011;54672;46.096;14.470;2022-08-03T00:11:30;4.72;;;3.60;;
67867;SDS011;54672;46.096;14.470;2022-08-03T00:13:56;4.78;;;3.60;;
67867;SDS011;54672;46.096;14.470;2022-08-03T00:16:21;3.67;;;3.05;;
67867;SDS011;54672;46.096;14.470;2022-08-03T00:18:49;4.93;;;3.63;;
67867;SDS011;54672;46.096;14.470;2022-08-03T00:21:14;6.28;;;3.47;;
67867;SDS011;54672;46.096;14.470;2022-08-03T00:23:39;6.55;;;3.40;;
67867;SDS011;54672;46.096;14.470;2022-08-03T00:26:05;4.97;;;3.53;;
67867;SDS011;54672;46.096;14.470;2022-08-03T00:28:31;5.32;;;3.67;;
67867;SDS011;54672;46.096;14.470;2022-08-03T00:30:56;4.20;;;3.50;;
67867;SDS011;54672;46.096;14.470;2022-08-03T00:33:22;4.40;;;3.40;;
67867;SDS011;54672;46.096;14.470;2022-08-03T00:35:47;3.95;;;3.22;;
67867;SDS011;54672;46.096;14.470;2022-08-03T00:38:13;4.97;;;3.65;;
67867;SDS011;54672;46.096;14.470;2022-08-03T00:40:38;4.63;;;3.38;;
67867;SDS011;54672;46.096;14.470;2022-08-03T00:43:04;4.65;;;3.38;;
67867;SDS011;54672;46.096;14.470;2022-08-03T00:45:38;5.05;;;3.38;;
67867;SDS011;54672;46.096;14.470;2022-08-03T00:48:05;5.22;;;3.42;;
67867;SDS011;54672;46.096;14.470;2022-08-03T00:50:36;6.35;;;3.58;;
67867;SDS011;54672;46.096;14.470;2022-08-03T00:53:04;5.90;;;3.72;;
67867;SDS011;54672;46.096;14.470;2022-08-03T00:55:31;4.70;;;3.60;;
67867;SDS011;54672;46.096;14.470;2022-08-03T00:57:57;5.05;;;3.75;;
67867;SDS011;54672;46.096;14.470;2022-08-03T01:00:26;4.93;;;3.50;;
67867;SDS011;54672;46.096;14.470;2022-08-03T01:02:52;4.57;;;3.58;;
67867;SDS011;54672;46.096;14.470;2022-08-03T01:05:18;4.85;;;3.78;;
67867;SDS011;54672;46.096;14.470;2022-08-03T01:16:11;6.75;;;3.70;;
67867;SDS011;54672;46.096;14.470;2022-08-03T01:24:36;4.40;;;3.53;;
67867;SDS011;54672;46.096;14.470;2022-08-03T01:27:17;5.03;;;3.80;;
67867;SDS011;54672;46.096;14.470;2022-08-03T01:29:57;4.78;;;3.42;;
67867;SDS011;54672;46.096;14.470;2022-08-03T01:32:40;6.72;;;3.67;;
67867;SDS011;54672;46.096;14.470;2022-08-03T01:35:15;6.65;;;3.65;;
67867;SDS011;54672;46.096;14.470;2022-08-03T01:37:51;7.03;;;3.88;;
67867;SDS011;54672;46.096;14.470;2022-08-03T01:40:23;7.55;;;4.22;;
67867;SDS011;54672;46.096;14.470;2022-08-03T01:42:51;7.18;;;3.63;;
67867;SDS011;54672;46.096;14.470;2022-08-03T01:45:19;5.78;;;3.60;;
67867;SDS011;54672;46.096;14.470;2022-08-03T01:47:46;4.57;;;3.90;;
67867;SDS011;54672;46.096;14.470;2022-08-03T01:50:13;5.40;;;3.90;;
67867;SDS011;54672;46.096;14.470;2022-08-03T01:52:41;6.63;;;3.78;;
67867;SDS011;54672;46.096;14.470;2022-08-03T01:55:08;5.22;;;3.40;;
67867;SDS011;54672;46.096;14.470;2022-08-03T01:57:36;6.95;;;3.78;;
67867;SDS011;54672;46.096;14.470;2022-08-03T02:00:03;5.72;;;3.78;;
67867;SDS011;54672;46.096;14.470;2022-08-03T02:02:31;5.65;;;3.80;;
67867;SDS011;54672;46.096;14.470;2022-08-03T02:04:57;5.18;;;3.53;;
67867;SDS011;54672;46.096;14.470;2022-08-03T02:07:24;4.88;;;3.63;;
67867;SDS011;54672;46.096;14.470;2022-08-03T02:09:51;4.57;;;3.35;;
67867;SDS011;54672;46.096;14.470;2022-08-03T02:12:18;6.63;;;3.63;;
67867;SDS011;54672;46.096;14.470;2022-08-03T02:14:46;5.18;;;3.90;;
67867;SDS011;54672;46.096;14.470;2022-08-03T02:17:13;6.22;;;3.67;;
67867;SDS011;54672;46.096;14.470;2022-08-03T02:19:39;6.50;;;4.05;;
67867;SDS011;54672;46.096;14.470;2022-08-03T02:22:07;6.65;;;4.57;;
67867;SDS011;54672;46.096;14.470;2022-08-03T02:24:35;4.68;;;3.80;;
67867;SDS011;54672;46.096;14.470;2022-08-03T02:27:00;6.47;;;3.88;;
67867;SDS011;54672;46.096;14.470;2022-08-03T02:29:32;5.55;;;3.65;;
67867;SDS011;54672;46.096;14.470;2022-08-03T02:32:00;5.60;;;3.88;;
67867;SDS011;54672;46.096;14.470;2022-08-03T02:34:28;5.20;;;3.80;;
67867;SDS011;54672;46.096;14.470;2022-08-03T02:36:57;5.28;;;3.85;;
67867;SDS011;54672;46.096;14.470;2022-08-03T02:39:24;6.03;;;3.80;;
67867;SDS011;54672;46.096;14.470;2022-08-03T02:41:53;4.68;;;3.80;;
67867;SDS011;54672;46.096;14.470;2022-08-03T02:44:26;5.00;;;3.70;;
67867;SDS011;54672;46.096;14.470;2022-08-03T02:46:53;5.57;;;3.50;;
67867;SDS011;54672;46.096;14.470;2022-08-03T02:49:22;5.82;;;4.25;;
67867;SDS011;54672;46.096;14.470;2022-08-03T02:51:49;6.88;;;4.47;;
67867;SDS011;54672;46.096;14.470;2022-08-03T02:54:17;5.95;;;4.25;;
67867;SDS011;54672;46.096;14.470;2022-08-03T02:56:44;8.35;;;4.60;;
67867;SDS011;54672;46.096;14.470;2022-08-03T02:59:11;5.85;;;4.30;;
67867;SDS011;54672;46.096;14.470;2022-08-03T03:01:37;6.50;;;4.28;;
67867;SDS011;54672;46.096;14.470;2022-08-03T03:04:03;8.25;;;4.53;;
67867;SDS011;54672;46.096;14.470;2022-08-03T03:06:30;6.00;;;4.30;;
67867;SDS011;54672;46.096;14.470;2022-08-03T03:08:55;6.88;;;4.50;;
67867;SDS011;54672;46.096;14.470;2022-08-03T03:11:21;8.07;;;4.35;;
67867;SDS011;54672;46.096;14.470;2022-08-03T03:13:49;6.40;;;3.95;;
67867;SDS011;54672;46.096;14.470;2022-08-03T03:16:15;7.43;;;4.10;;
67867;SDS011;54672;46.096;14.470;2022-08-03T03:18:42;5.90;;;4.20;;
67867;SDS011;54672;46.096;14.470;2022-08-03T03:21:09;7.35;;;4.55;;
67867;SDS011;54672;46.096;14.470;2022-08-03T03:23:38;6.40;;;4.22;;
67867;SDS011;54672;46.096;14.470;2022-08-03T03:26:04;7.93;;;4.40;;
67867;SDS011;54672;46.096;14.470;2022-08-03T03:28:31;7.28;;;4.35;;
67867;SDS011;54672;46.096;14.470;2022-08-03T03:30:57;6.55;;;4.53;;
67867;SDS011;54672;46.096;14.470;2022-08-03T03:33:23;7.72;;;4.45;;
67867;SDS011;54672;46.096;14.470;2022-08-03T03:35:49;6.53;;;4.25;;
67867;SDS011;54672;46.096;14.470;2022-08-03T03:38:16;7.30;;;4.50;;
67867;SDS011;54672;46.096;14.470;2022-08-03T03:40:41;8.45;;;4.30;;
67867;SDS011;54672;46.096;14.470;2022-08-03T03:43:08;6.97;;;4.45;;
67867;SDS011;54672;46.096;14.470;2022-08-03T03:45:35;5.03;;;3.88;;
67867;SDS011;54672;46.096;14.470;2022-08-03T03:48:01;6.53;;;4.60;;
67867;SDS011;54672;46.096;14.470;2022-08-03T03:50:28;6.85;;;4.10;;
67867;SDS011;54672;46.096;14.470;2022-08-03T03:52:56;6.47;;;4.40;;
67867;SDS011;54672;46.096;14.470;2022-08-03T03:55:21;6.45;;;4.40;;
67867;SDS011;54672;46.096;14.470;2022-08-03T03:57:47;7.10;;;4.63;;
67867;SDS011;54672;46.096;14.470;2022-08-03T04:00:12;8.55;;;4.35;;
67867;SDS011;54672;46.096;14.470;2022-08-03T04:02:39;7.20;;;4.32;;
67867;SDS011;54672;46.096;14.470;2022-08-03T04:05:05;5.20;;;3.85;;
67867;SDS011;54672;46.096;14.470;2022-08-03T04:07:55;5.43;;;4.30;;
67867;SDS011;54672;46.096;14.470;2022-08-03T04:10:42;5.45;;;4.25;;
67867;SDS011;54672;46.096;14.470;2022-08-03T04:13:28;5.03;;;3.80;;
67867;SDS011;54672;46.096;14.470;2022-08-03T04:15:57;5.43;;;3.53;;
67867;SDS011;54672;46.096;14.470;2022-08-03T04:18:23;5.60;;;3.80;;
67867;SDS011;54672;46.096;14.470;2022-08-03T04:20:51;5.72;;;3.95;;
67867;SDS011;54672;46.096;14.470;2022-08-03T04:23:18;4.78;;;3.55;;
67867;SDS011;54672;46.096;14.470;2022-08-03T04:25:46;4.68;;;3.30;;
67867;SDS011;54672;46.096;14.470;2022-08-03T04:28:15;4.18;;;3.42;;
67867;SDS011;54672;46.096;14.470;2022-08-03T04:30:44;6.72;;;3.72;;
67867;SDS011;54672;46.096;14.470;2022-08-03T04:33:13;5.30;;;3.38;;
67867;SDS011;54672;46.096;14.470;2022-08-03T04:35:40;6.70;;;3.55;;
67867;SDS011;54672;46.096;14.470;2022-08-03T04:38:08;5.30;;;3.50;;
67867;SDS011;54672;46.096;14.470;2022-08-03T04:40:39;7.40;;;3.78;;
67867;SDS011;54672;46.096;14.470;2022-08-03T04:43:07;4.60;;;3.70;;
67867;SDS011;54672;46.096;14.470;2022-08-03T04:45:34;4.25;;;3.33;;
67867;SDS011;54672;46.096;14.470;2022-08-03T04:48:01;5.88;;;3.67;;
67867;SDS011;54672;46.096;14.470;2022-08-03T04:50:27;7.57;;;3.60;;
67867;SDS011;54672;46.096;14.470;2022-08-03T04:52:54;9.55;;;3.60;;
67867;SDS011;54672;46.096;14.470;2022-08-03T04:55:27;5.95;;;3.28;;
67867;SDS011;54672;46.096;14.470;2022-08-03T04:57:56;5.22;;;3.45;;
67867;SDS011;54672;46.096;14.470;2022-08-03T05:00:23;7.03;;;3.20;;
67867;SDS011;54672;46.096;14.470;2022-08-03T05:02:48;6.45;;;3.53;;
67867;SDS011;54672;46.096;14.470;2022-08-03T05:05:14;4.43;;;3.40;;
67867;SDS011;54672;46.096;14.470;2022-08-03T05:07:40;4.35;;;3.25;;
67867;SDS011;54672;46.096;14.470;2022-08-03T05:10:07;6.18;;;3.30;;
67867;SDS011;54672;46.096;14.470;2022-08-03T05:12:34;4.35;;;2.65;;
67867;SDS011;54672;46.096;14.470;2022-08-03T05:15:00;4.13;;;3.15;;
67867;SDS011;54672;46.096;14.470;2022-08-03T05:17:26;6.13;;;3.60;;
67867;SDS011;54672;46.096;14.470;2022-08-03T05:19:52;4.72;;;3.22;;
67867;SDS011;54672;46.096;14.470;2022-08-03T05:22:17;4.63;;;2.70;;
67867;SDS011;54672;46.096;14.470;2022-08-03T05:24:43;3.85;;;3.28;;
67867;SDS011;54672;46.096;14.470;2022-08-03T05:27:08;3.90;;;3.00;;
67867;SDS011;54672;46.096;14.470;2022-08-03T05:29:34;4.43;;;3.25;;
67867;SDS011;54672;46.096;14.470;2022-08-03T05:32:00;7.38;;;3.70;;
67867;SDS011;54672;46.096;14.470;2022-08-03T05:34:26;4.28;;;3.30;;
67867;SDS011;54672;46.096;14.470;2022-08-03T05:36:51;8.52;;;4.20;;
67867;SDS011;54672;46.096;14.470;2022-08-03T05:39:17;5.20;;;3.63;;
67867;SDS011;54672;46.096;14.470;2022-08-03T05:41:42;4.28;;;3.78;;
67867;SDS011;54672;46.096;14.470;2022-08-03T05:44:07;6.95;;;3.95;;
67867;SDS011;54672;46.096;14.470;2022-08-03T05:46:33;3.80;;;3.40;;
67867;SDS011;54672;46.096;14.470;2022-08-03T05:48:58;4.65;;;3.65;;
67867;SDS011;54672;46.096;14.470;2022-08-03T05:51:24;5.55;;;3.35;;
67867;SDS011;54672;46.096;14.470;2022-08-03T05:53:49;5.18;;;3.50;;
67867;SDS011;54672;46.096;14.470;2022-08-03T05:56:15;4.15;;;3.40;;
67867;SDS011;54672;46.096;14.470;2022-08-03T05:58:41;4.22;;;3.10;;
67867;SDS011;54672;46.096;14.470;2022-08-03T06:01:07;4.63;;;3.47;;
67867;SDS011;54672;46.096;14.470;2022-08-03T06:03:32;5.57;;;3.50;;
67867;SDS011;54672;46.096;14.470;2022-08-03T06:05:58;7.18;;;3.78;;
67867;SDS011;54672;46.096;14.470;2022-08-03T06:08:23;4.45;;;3.30;;
67867;SDS011;54672;46.096;14.470;2022-08-03T06:10:49;3.80;;;3.42;;
67867;SDS011;54672;46.096;14.470;2022-08-03T06:13:14;7.20;;;3.50;;
67867;SDS011;54672;46.096;14.470;2022-08-03T06:15:40;4.95;;;3.10;;
67867;SDS011;54672;46.096;14.470;2022-08-03T06:18:05;4.85;;;3.17;;
67867;SDS011;54672;46.096;14.470;2022-08-03T06:20:32;3.55;;;3.25;;
67867;SDS011;54672;46.096;14.470;2022-08-03T06:22:57;7.75;;;3.40;;
67867;SDS011;54672;46.096;14.470;2022-08-03T06:25:24;4.10;;;3.22;;
67867;SDS011;54672;46.096;14.470;2022-08-03T06:27:50;4.78;;;3.20;;
67867;SDS011;54672;46.096;14.470;2022-08-03T06:30:15;8.80;;;3.33;;
67867;SDS011;54672;46.096;14.470;2022-08-03T06:32:41;3.95;;;3.00;;
67867;SDS011;54672;46.096;14.470;2022-08-03T06:35:07;3.88;;;2.92;;
67867;SDS011;54672;46.096;14.470;2022-08-03T06:37:49;2.92;;;2.60;;
67867;SDS011;54672;46.096;14.470;2022-08-03T06:40:16;4.37;;;3.27;;
67867;SDS011;54672;46.096;14.470;2022-08-03T06:42:56;7.15;;;3.20;;
67867;SDS011;54672;46.096;14.470;2022-08-03T06:45:22;3.17;;;2.70;;
67867;SDS011;54672;46.096;14.470;2022-08-03T06:47:58;4.07;;;3.13;;
67867;SDS011;54672;46.096;14.470;2022-08-03T06:50:29;4.40;;;3.13;;
67867;SDS011;54672;46.096;14.470;2022-08-03T06:52:55;4.68;;;3.03;;
67867;SDS011;54672;46.096;14.470;2022-08-03T06:55:21;3.33;;;2.80;;
67867;SDS011;54672;46.096;14.470;2022-08-03T06:57:46;4.47;;;3.03;;
67867;SDS011;54672;46.096;14.470;2022-08-03T07:00:12;7.05;;;3.10;;
67867;SDS011;54672;46.096;14.470;2022-08-03T07:02:38;6.03;;;3.20;;
67867;SDS011;54672;46.096;14.470;2022-08-03T07:05:04;3.20;;;2.15;;
67867;SDS011;54672;46.096;14.470;2022-08-03T07:07:30;3.58;;;2.75;;
67867;SDS011;54672;46.096;14.470;2022-08-03T07:09:57;4.05;;;3.25;;
67867;SDS011;54672;46.096;14.470;2022-08-03T07:12:22;3.40;;;3.10;;
67867;SDS011;54672;46.096;14.470;2022-08-03T07:14:48;2.72;;;2.50;;
67867;SDS011;54672;46.096;14.470;2022-08-03T07:17:13;5.10;;;2.60;;
67867;SDS011;54672;46.096;14.470;2022-08-03T07:19:39;3.38;;;2.70;;
67867;SDS011;54672;46.096;14.470;2022-08-03T07:22:04;3.38;;;2.55;;
67867;SDS011;54672;46.096;14.470;2022-08-03T07:24:30;3.22;;;2.65;;
67867;SDS011;54672;46.096;14.470;2022-08-03T07:26:55;4.88;;;2.88;;
67867;SDS011;54672;46.096;14.470;2022-08-03T07:29:21;2.92;;;2.63;;
67867;SDS011;54672;46.096;14.470;2022-08-03T07:31:47;3.05;;;2.75;;
67867;SDS011;54672;46.096;14.470;2022-08-03T07:34:12;5.22;;;2.80;;
67867;SDS011;54672;46.096;14.470;2022-08-03T07:36:38;4.03;;;2.95;;
67867;SDS011;54672;46.096;14.470;2022-08-03T07:39:03;3.75;;;2.60;;
67867;SDS011;54672;46.096;14.470;2022-08-03T07:41:29;3.17;;;2.70;;
67867;SDS011;54672;46.096;14.470;2022-08-03T07:43:55;4.82;;;3.00;;
67867;SDS011;54672;46.096;14.470;2022-08-03T07:46:21;3.78;;;2.45;;
67867;SDS011;54672;46.096;14.470;2022-08-03T07:48:46;3.60;;;2.50;;
67867;SDS011;54672;46.096;14.470;2022-08-03T07:51:12;2.88;;;2.50;;
67867;SDS011;54672;46.096;14.470;2022-08-03T07:53:37;4.30;;;2.70;;
67867;SDS011;54672;46.096;14.470;2022-08-03T07:56:03;4.50;;;2.70;;
67867;SDS011;54672;46.096;14.470;2022-08-03T07:58:28;5.15;;;2.90;;
67867;SDS011;54672;46.096;14.470;2022-08-03T08:00:54;4.05;;;2.70;;
67867;SDS011;54672;46.096;14.470;2022-08-03T08:03:19;3.42;;;3.08;;
67867;SDS011;54672;46.096;14.470;2022-08-03T08:05:46;4.43;;;2.88;;
67867;SDS011;54672;46.096;14.470;2022-08-03T08:08:11;5.15;;;2.88;;
67867;SDS011;54672;46.096;14.470;2022-08-03T08:10:37;5.18;;;2.90;;
67867;SDS011;54672;46.096;14.470;2022-08-03T08:13:02;3.80;;;2.67;;
67867;SDS011;54672;46.096;14.470;2022-08-03T08:15:28;3.38;;;2.50;;
67867;SDS011;54672;46.096;14.470;2022-08-03T08:17:55;3.33;;;2.67;;
67867;SDS011;54672;46.096;14.470;2022-08-03T08:20:23;3.03;;;2.60;;
67867;SDS011;54672;46.096;14.470;2022-08-03T08:22:56;3.80;;;2.60;;
67867;SDS011;54672;46.096;14.470;2022-08-03T08:25:23;3.88;;;2.60;;
67867;SDS011;54672;46.096;14.470;2022-08-03T08:27:49;4.00;;;2.80;;
67867;SDS011;54672;46.096;14.470;2022-08-03T08:30:16;5.15;;;2.95;;
67867;SDS011;54672;46.096;14.470;2022-08-03T08:32:43;3.47;;;2.75;;
67867;SDS011;54672;46.096;14.470;2022-08-03T08:35:09;5.63;;;2.70;;
67867;SDS011;54672;46.096;14.470;2022-08-03T08:37:34;3.28;;;2.97;;
67867;SDS011;54672;46.096;14.470;2022-08-03T08:40:00;4.28;;;3.10;;
67867;SDS011;54672;46.096;14.470;2022-08-03T08:42:26;3.20;;;2.90;;
67867;SDS011;54672;46.096;14.470;2022-08-03T08:44:51;4.45;;;3.08;;
67867;SDS011;54672;46.096;14.470;2022-08-03T08:47:23;4.00;;;3.33;;
67867;SDS011;54672;46.096;14.470;2022-08-03T08:49:52;5.85;;;3.08;;
67867;SDS011;54672;46.096;14.470;2022-08-03T08:52:23;3.53;;;2.97;;
67867;SDS011;54672;46.096;14.470;2022-08-03T08:54:51;3.60;;;2.90;;
67867;SDS011;54672;46.096;14.470;2022-08-03T08:57:21;4.85;;;2.80;;
67867;SDS011;54672;46.096;14.470;2022-08-03T08:59:50;3.45;;;2.72;;
67867;SDS011;54672;46.096;14.470;2022-08-03T09:02:17;2.85;;;2.60;;
67867;SDS011;54672;46.096;14.470;2022-08-03T09:04:43;2.92;;;2.50;;
67867;SDS011;54672;46.096;14.470;2022-08-03T09:07:09;5.05;;;2.70;;
67867;SDS011;54672;46.096;14.470;2022-08-03T09:09:35;2.70;;;2.38;;
67867;SDS011;54672;46.096;14.470;2022-08-03T09:12:00;3.35;;;2.47;;
67867;SDS011;54672;46.096;14.470;2022-08-03T09:14:25;3.63;;;2.70;;
67867;SDS011;54672;46.096;14.470;2022-08-03T09:16:58;2.83;;;2.47;;
67867;SDS011;54672;46.096;14.470;2022-08-03T09:19:26;2.20;;;2.00;;
67867;SDS011;54672;46.096;14.470;2022-08-03T09:22:11;3.67;;;2.35;;
67867;SDS011;54672;46.096;14.470;2022-08-03T09:27:40;2.60;;;2.40;;
67867;SDS011;54672;46.096;14.470;2022-08-03T09:30:12;4.15;;;2.63;;
67867;SDS011;54672;46.096;14.470;2022-08-03T09:32:39;3.63;;;2.42;;
67867;SDS011;54672;46.096;14.470;2022-08-03T09:35:05;4.65;;;2.63;;
67867;SDS011;54672;46.096;14.470;2022-08-03T09:37:32;5.93;;;2.83;;
67867;SDS011;54672;46.096;14.470;2022-08-03T09:39:57;3.47;;;2.80;;
67867;SDS011;54672;46.096;14.470;2022-08-03T09:42:23;3.00;;;2.47;;
67867;SDS011;54672;46.096;14.470;2022-08-03T09:44:49;3.97;;;3.20;;
67867;SDS011;54672;46.096;14.470;2022-08-03T09:47:34;3.40;;;2.60;;
67867;SDS011;54672;46.096;14.470;2022-08-03T09:50:03;3.60;;;2.60;;
67867;SDS011;54672;46.096;14.470;2022-08-03T09:52:35;5.15;;;3.30;;
67867;SDS011;54672;46.096;14.470;2022-08-03T09:55:11;3.45;;;2.55;;
67867;SDS011;54672;46.096;14.470;2022-08-03T09:57:38;2.90;;;2.60;;
67867;SDS011;54672;46.096;14.470;2022-08-03T10:02:36;2.92;;;2.67;;
67867;SDS011;54672;46.096;14.470;2022-08-03T10:05:02;3.38;;;2.45;;
67867;SDS011;54672;46.096;14.470;2022-08-03T10:07:27;3.08;;;2.78;;
67867;SDS011;54672;46.096;14.470;2022-08-03T10:12:23;2.83;;;2.53;;
67867;SDS011;54672;46.096;14.470;2022-08-03T10:14:50;3.88;;;2.78;;
67867;SDS011;54672;46.096;14.470;2022-08-03T10:17:16;3.08;;;2.78;;
67867;SDS011;54672;46.096;14.470;2022-08-03T10:19:43;3.30;;;2.85;;
67867;SDS011;54672;46.096;14.470;2022-08-03T10:22:12;3.22;;;2.92;;
67867;SDS011;54672;46.096;14.470;2022-08-03T10:27:21;3.65;;;3.13;;
67867;SDS011;54672;46.096;14.470;2022-08-03T10:29:51;5.10;;;3.28;;
67867;SDS011;54672;46.096;14.470;2022-08-03T10:32:41;3.65;;;3.00;;
67867;SDS011;54672;46.096;14.470;2022-08-03T10:35:07;4.45;;;3.30;;
67867;SDS011;54672;46.096;14.470;2022-08-03T10:37:39;3.55;;;3.20;;
67867;SDS011;54672;46.096;14.470;2022-08-03T10:40:07;3.70;;;3.30;;
67867;SDS011;54672;46.096;14.470;2022-08-03T10:42:36;4.50;;;2.92;;
67867;SDS011;54672;46.096;14.470;2022-08-03T10:45:04;3.85;;;2.95;;
67867;SDS011;54672;46.096;14.470;2022-08-03T10:47:31;4.90;;;2.70;;
67867;SDS011;54672;46.096;14.470;2022-08-03T10:49:58;3.13;;;2.50;;
67867;SDS011;54672;46.096;14.470;2022-08-03T10:52:24;2.92;;;2.40;;
67867;SDS011;54672;46.096;14.470;2022-08-03T10:54:50;3.13;;;2.53;;
67867;SDS011;54672;46.096;14.470;2022-08-03T10:57:41;3.13;;;2.40;;
67867;SDS011;54672;46.096;14.470;2022-08-03T11:00:15;3.13;;;2.50;;
67867;SDS011;54672;46.096;14.470;2022-08-03T11:06:13;3.28;;;2.50;;
67867;SDS011;54672;46.096;14.470;2022-08-03T11:08:38;2.58;;;2.28;;
67867;SDS011;54672;46.096;14.470;2022-08-03T11:13:55;2.65;;;2.30;;
67867;SDS011;54672;46.096;14.470;2022-08-03T11:16:21;3.22;;;2.25;;
67867;SDS011;54672;46.096;14.470;2022-08-03T11:40:41;3.20;;;2.20;;
67867;SDS011;54672;46.096;14.470;2022-08-03T11:46:07;5.43;;;2.40;;
67867;SDS011;54672;46.096;14.470;2022-08-03T11:48:44;2.50;;;2.00;;
67867;SDS011;54672;46.096;14.470;2022-08-03T11:51:21;3.75;;;2.33;;
67867;SDS011;54672;46.096;14.470;2022-08-03T11:53:50;3.20;;;2.20;;
67867;SDS011;54672;46.096;14.470;2022-08-03T11:56:19;2.08;;;1.88;;
67867;SDS011;54672;46.096;14.470;2022-08-03T11:58:45;3.50;;;2.20;;
67867;SDS011;54672;46.096;14.470;2022-08-03T12:01:12;2.40;;;2.15;;
67867;SDS011;54672;46.096;14.470;2022-08-03T12:03:40;3.38;;;2.13;;
67867;SDS011;54672;46.096;14.470;2022-08-03T12:06:10;3.25;;;2.17;;
67867;SDS011;54672;46.096;14.470;2022-08-03T12:08:36;2.10;;;1.83;;
67867;SDS011;54672;46.096;14.470;2022-08-03T12:11:03;2.30;;;2.10;;
67867;SDS011;54672;46.096;14.470;2022-08-03T12:13:41;2.35;;;2.15;;
67867;SDS011;54672;46.096;14.470;2022-08-03T12:16:17;2.15;;;1.95;;
67867;SDS011;54672;46.096;14.470;2022-08-03T12:18:58;2.58;;;2.03;;
67867;SDS011;54672;46.096;14.470;2022-08-03T12:21:29;2.45;;;2.10;;
67867;SDS011;54672;46.096;14.470;2022-08-03T12:24:02;3.38;;;1.80;;
67867;SDS011;54672;46.096;14.470;2022-08-03T12:26:29;2.42;;;2.00;;
67867;SDS011;54672;46.096;14.470;2022-08-03T12:29:15;3.25;;;2.30;;
67867;SDS011;54672;46.096;14.470;2022-08-03T12:31:43;2.67;;;2.00;;
67867;SDS011;54672;46.096;14.470;2022-08-03T12:34:09;2.00;;;1.73;;
67867;SDS011;54672;46.096;14.470;2022-08-03T12:36:35;3.08;;;2.20;;
67867;SDS011;54672;46.096;14.470;2022-08-03T12:39:05;2.63;;;2.05;;
67867;SDS011;54672;46.096;14.470;2022-08-03T12:41:34;2.70;;;2.38;;
67867;SDS011;54672;46.096;14.470;2022-08-03T12:44:07;2.88;;;2.15;;
67867;SDS011;54672;46.096;14.470;2022-08-03T12:46:36;2.88;;;2.10;;
67867;SDS011;54672;46.096;14.470;2022-08-03T12:51:29;2.78;;;2.30;;
67867;SDS011;54672;46.096;14.470;2022-08-03T12:53:56;2.65;;;2.17;;
67867;SDS011;54672;46.096;14.470;2022-08-03T12:56:23;2.95;;;2.20;;
67867;SDS011;54672;46.096;14.470;2022-08-03T12:58:48;3.05;;;2.08;;
67867;SDS011;54672;46.096;14.470;2022-08-03T13:01:14;2.88;;;1.98;;
67867;SDS011;54672;46.096;14.470;2022-08-03T13:03:40;2.10;;;1.88;;
67867;SDS011;54672;46.096;14.470;2022-08-03T13:06:11;2.10;;;1.90;;
67867;SDS011;54672;46.096;14.470;2022-08-03T13:08:37;2.80;;;1.90;;
67867;SDS011;54672;46.096;14.470;2022-08-03T13:11:19;3.25;;;2.10;;
67867;SDS011;54672;46.096;14.470;2022-08-03T13:13:46;2.88;;;1.77;;
67867;SDS011;54672;46.096;14.470;2022-08-03T13:16:12;2.67;;;2.03;;
67867;SDS011;54672;46.096;14.470;2022-08-03T13:18:38;2.78;;;2.00;;
67867;SDS011;54672;46.096;14.470;2022-08-03T13:21:03;3.20;;;1.80;;
67867;SDS011;54672;46.096;14.470;2022-08-03T13:23:29;2.10;;;1.90;;
67867;SDS011;54672;46.096;14.470;2022-08-03T13:25:54;2.75;;;2.30;;
67867;SDS011;54672;46.096;14.470;2022-08-03T13:28:19;2.95;;;2.00;;
67867;SDS011;54672;46.096;14.470;2022-08-03T13:30:45;2.70;;;2.00;;
67867;SDS011;54672;46.096;14.470;2022-08-03T13:33:10;2.15;;;1.90;;
67867;SDS011;54672;46.096;14.470;2022-08-03T13:35:36;3.25;;;1.90;;
67867;SDS011;54672;46.096;14.470;2022-08-03T13:38:01;3.78;;;1.90;;
67867;SDS011;54672;46.096;14.470;2022-08-03T13:40:26;2.53;;;1.95;;
67867;SDS011;54672;46.096;14.470;2022-08-03T13:42:52;2.00;;;1.70;;
67867;SDS011;54672;46.096;14.470;2022-08-03T13:45:17;2.45;;;2.13;;
67867;SDS011;54672;46.096;14.470;2022-08-03T13:47:43;3.35;;;2.50;;
67867;SDS011;54672;46.096;14.470;2022-08-03T13:50:08;2.08;;;1.88;;
67867;SDS011;54672;46.096;14.470;2022-08-03T13:52:34;2.13;;;1.67;;
67867;SDS011;54672;46.096;14.470;2022-08-03T13:55:00;2.00;;;1.80;;
67867;SDS011;54672;46.096;14.470;2022-08-03T13:57:28;2.20;;;1.90;;
67867;SDS011;54672;46.096;14.470;2022-08-03T13:59:53;2.03;;;1.70;;
67867;SDS011;54672;46.096;14.470;2022-08-03T14:02:19;1.98;;;1.80;;
67867;SDS011;54672;46.096;14.470;2022-08-03T14:04:44;2.40;;;2.20;;
67867;SDS011;54672;46.096;14.470;2022-08-03T14:07:10;5.85;;;2.00;;
67867;SDS011;54672;46.096;14.470;2022-08-03T14:09:38;2.20;;;1.60;;
67867;SDS011;54672;46.096;14.470;2022-08-03T14:12:05;2.05;;;1.80;;
67867;SDS011;54672;46.096;14.470;2022-08-03T14:14:30;1.85;;;1.73;;
67867;SDS011;54672;46.096;14.470;2022-08-03T14:16:56;3.72;;;1.60;;
67867;SDS011;54672;46.096;14.470;2022-08-03T14:19:21;1.63;;;1.50;;
67867;SDS011;54672;46.096;14.470;2022-08-03T14:21:46;2.10;;;1.90;;
67867;SDS011;54672;46.096;14.470;2022-08-03T14:24:12;2.28;;;1.70;;
67867;SDS011;54672;46.096;14.470;2022-08-03T14:26:37;1.85;;;1.70;;
67867;SDS011;54672;46.096;14.470;2022-08-03T14:29:03;3.85;;;1.95;;
67867;SDS011;54672;46.096;14.470;2022-08-03T14:31:29;2.13;;;1.90;;
67867;SDS011;54672;46.096;14.470;2022-08-03T14:33:55;1.98;;;1.77;;
67867;SDS011;54672;46.096;14.470;2022-08-03T14:36:20;5.13;;;2.45;;
67867;SDS011;54672;46.096;14.470;2022-08-03T14:38:45;3.15;;;1.90;;
67867;SDS011;54672;46.096;14.470;2022-08-03T14:41:11;2.15;;;1.80;;
67867;SDS011;54672;46.096;14.470;2022-08-03T14:43:36;3.90;;;1.92;;
67867;SDS011;54672;46.096;14.470;2022-08-03T14:46:02;3.08;;;1.75;;
67867;SDS011;54672;46.096;14.470;2022-08-03T14:48:27;1.67;;;1.50;;
67867;SDS011;54672;46.096;14.470;2022-08-03T14:50:53;1.90;;;1.70;;
67867;SDS011;54672;46.096;14.470;2022-08-03T14:53:19;3.67;;;1.80;;
67867;SDS011;54672;46.096;14.470;2022-08-03T14:55:44;2.30;;;1.83;;
67867;SDS011;54672;46.096;14.470;2022-08-03T14:58:12;2.85;;;1.70;;
67867;SDS011;54672;46.096;14.470;2022-08-03T15:00:37;2.38;;;1.77;;
67867;SDS011;54672;46.096;14.470;2022-08-03T15:03:02;2.50;;;2.13;;
67867;SDS011;54672;46.096;14.470;2022-08-03T15:05:28;2.42;;;1.83;;
67867;SDS011;54672;46.096;14.470;2022-08-03T15:07:54;1.92;;;1.77;;
67867;SDS011;54672;46.096;14.470;2022-08-03T15:10:19;2.45;;;1.80;;
67867;SDS011;54672;46.096;14.470;2022-08-03T15:12:45;2.25;;;2.00;;
67867;SDS011;54672;46.096;14.470;2022-08-03T15:15:11;2.10;;;1.90;;
67867;SDS011;54672;46.096;14.470;2022-08-03T15:17:36;2.85;;;2.30;;
67867;SDS011;54672;46.096;14.470;2022-08-03T15:20:02;2.70;;;2.00;;
67867;SDS011;54672;46.096;14.470;2022-08-03T15:22:28;3.00;;;2.10;;
67867;SDS011;54672;46.096;14.470;2022-08-03T15:24:54;2.92;;;1.83;;
67867;SDS011;54672;46.096;14.470;2022-08-03T15:27:20;2.38;;;1.88;;
67867;SDS011;54672;46.096;14.470;2022-08-03T15:29:46;2.67;;;1.95;;
67867;SDS011;54672;46.096;14.470;2022-08-03T15:32:11;2.42;;;1.90;;
67867;SDS011;54672;46.096;14.470;2022-08-03T15:34:37;2.00;;;1.80;;